Time;durP1;ratioP1;P1;durP2;ratioP2;P2;SDS_P1;SDS_P2;PMS_P1;PMS_P2;Temp;Humidity;BMP_temperature;BMP_pressure;BME280_temperature;BME280_humidity;BME280_pressure;Samples;Min_cycle;Max_cycle;Signal;HPM_P1;HPM_P2
2023/08/11 00:01:33;;;;;;;9.48;3.10;;;;;;;17.48;100.00;96384.78;5118062;27;20084;-67
2023/08/11 00:03:59;;;;;;;4.00;3.50;;;;;;;17.45;100.00;96364.63;5098479;27;20019;-67
2023/08/11 00:06:25;;;;;;;4.88;3.10;;;;;;;17.42;100.00;96354.34;5118454;27;20027;-67
2023/08/11 00:08:52;;;;;;;7.47;3.25;;;;;;;17.43;100.00;96358.66;5118773;27;20051;-67
2023/08/11 00:11:18;;;;;;;5.07;3.35;;;;;;;17.44;100.00;96360.31;5119255;27;20057;-66
2023/08/11 00:13:44;;;;;;;3.85;3.20;;;;;;;17.50;100.00;96368.63;5118837;27;20015;-66
2023/08/11 00:16:10;;;;;;;3.60;3.25;;;;;;;17.44;100.00;96356.81;5116766;27;20091;-67
2023/08/11 00:18:35;;;;;;;4.80;2.97;;;;;;;17.43;100.00;96353.34;5099514;28;20008;-67
2023/08/11 00:21:02;;;;;;;7.75;3.28;;;;;;;17.45;100.00;96353.16;5116116;27;20024;-67
2023/08/11 00:23:27;;;;;;;4.25;2.72;;;;;;;17.46;100.00;96353.00;5100155;28;20522;-67
2023/08/11 00:25:53;;;;;;;4.10;3.08;;;;;;;17.43;100.00;96350.66;5098259;28;20031;-67
2023/08/11 00:28:18;;;;;;;2.90;2.70;;;;;;;17.39;100.00;96345.84;5116150;28;20065;-67
2023/08/11 00:30:44;;;;;;;5.40;3.17;;;;;;;17.36;100.00;96341.72;5112149;28;20030;-67
2023/08/11 00:33:10;;;;;;;3.13;2.83;;;;;;;17.33;100.00;96342.03;5117188;28;20057;-66
2023/08/11 00:35:35;;;;;;;3.17;2.97;;;;;;;17.36;100.00;96336.38;5118344;28;20024;-67
2023/08/11 00:38:01;;;;;;;3.72;2.90;;;;;;;17.37;100.00;96348.69;5099422;28;20030;-67
2023/08/11 00:40:26;;;;;;;3.38;3.08;;;;;;;17.34;100.00;96343.69;5117936;28;20023;-66
2023/08/11 00:42:52;;;;;;;3.78;3.47;;;;;;;17.35;100.00;96341.88;5118677;28;20029;-66
2023/08/11 00:45:18;;;;;;;3.28;2.83;;;;;;;17.36;100.00;96324.91;5116596;28;20106;-66
2023/08/11 00:47:45;;;;;;;5.78;3.00;;;;;;;17.32;100.00;96305.78;5084045;28;20032;-67
2023/08/11 00:50:13;;;;;;;3.42;2.90;;;;;;;17.30;100.00;96313.09;5113517;28;20027;-67
2023/08/11 00:52:39;;;;;;;3.85;3.15;;;;;;;17.28;100.00;96312.44;5093764;28;20049;-67
2023/08/11 00:55:07;;;;;;;2.85;2.65;;;;;;;17.28;100.00;96323.06;5114840;28;20022;-67
2023/08/11 00:57:34;;;;;;;5.00;2.90;;;;;;;17.22;100.00;96316.59;5110763;28;20024;-67
2023/08/11 01:00:11;;;;;;;3.72;2.92;;;;;;;17.16;100.00;96326.09;5114389;28;20053;-67
2023/08/11 01:02:36;;;;;;;4.00;3.08;;;;;;;17.10;100.00;96302.81;5123214;28;20028;-67
2023/08/11 01:05:04;;;;;;;5.22;2.85;;;;;;;17.02;100.00;96294.84;5098544;28;20023;-67
2023/08/11 01:07:46;;;;;;;3.00;2.80;;;;;;;17.01;100.00;96290.53;5116039;28;20123;-67
2023/08/11 01:10:21;;;;;;;3.17;2.97;;;;;;;17.01;100.00;96277.22;5122947;28;20019;-67
2023/08/11 01:12:47;;;;;;;3.53;3.22;;;;;;;16.95;100.00;96273.38;5113578;28;20020;-67
2023/08/11 01:15:22;;;;;;;3.38;3.13;;;;;;;16.90;100.00;96260.56;5118936;27;20038;-67
2023/08/11 01:17:48;;;;;;;3.95;3.00;;;;;;;16.88;100.00;96251.13;5122024;27;20046;-67
2023/08/11 01:20:16;;;;;;;4.57;3.63;;;;;;;16.86;100.00;96227.34;5121275;27;20031;-67
2023/08/11 01:22:47;;;;;;;3.58;3.30;;;;;;;16.81;100.00;96219.03;5126025;27;20140;-67
2023/08/11 01:25:13;;;;;;;3.30;3.10;;;;;;;16.83;100.00;96201.09;5115667;27;20016;-67
2023/08/11 01:27:52;;;;;;;4.05;3.33;;;;;;;16.76;100.00;96166.38;5116612;27;20048;-67
2023/08/11 01:30:18;;;;;;;3.17;2.90;;;;;;;16.78;100.00;96157.38;5119552;27;20027;-67
2023/08/11 01:32:44;;;;;;;4.40;3.33;;;;;;;16.72;100.00;96151.75;5120486;27;20083;-67
2023/08/11 01:35:10;;;;;;;3.47;3.17;;;;;;;16.72;100.00;96158.91;5121113;27;20024;-67
2023/08/11 01:37:36;;;;;;;3.75;3.47;;;;;;;16.70;100.00;96147.63;5116194;27;20027;-67
2023/08/11 01:40:05;;;;;;;5.20;3.28;;;;;;;16.68;100.00;96145.13;5101743;27;20080;-67
2023/08/11 01:42:31;;;;;;;3.10;2.88;;;;;;;16.65;100.00;96136.66;5114487;27;20030;-67
2023/08/11 01:44:56;;;;;;;3.60;3.30;;;;;;;16.63;100.00;96131.53;5123575;27;20020;-67
2023/08/11 01:47:23;;;;;;;4.82;2.90;;;;;;;16.64;100.00;96132.34;5116305;27;20020;-67
2023/08/11 01:49:49;;;;;;;3.35;3.05;;;;;;;16.63;100.00;96088.16;5125070;27;20023;-67
2023/08/11 01:52:15;;;;;;;3.80;3.38;;;;;;;16.61;100.00;96085.69;5116407;27;20057;-67
2023/08/11 01:54:44;;;;;;;3.60;3.30;;;;;;;16.61;100.00;96075.88;5124869;27;20054;-67
2023/08/11 01:57:09;;;;;;;3.92;3.15;;;;;;;16.61;100.00;96062.56;5120358;27;20058;-67
2023/08/11 01:59:35;;;;;;;3.33;2.97;;;;;;;16.59;100.00;96047.81;5123366;27;20024;-67
2023/08/11 02:02:00;;;;;;;3.38;3.17;;;;;;;16.57;100.00;96025.88;5120034;27;20023;-67
2023/08/11 02:04:26;;;;;;;3.42;3.15;;;;;;;16.55;100.00;96012.75;5115122;27;20023;-67
2023/08/11 02:06:51;;;;;;;3.10;2.80;;;;;;;16.54;100.00;95996.97;5098405;28;20027;-67
2023/08/11 02:09:17;;;;;;;4.45;3.58;;;;;;;16.53;100.00;95977.56;5124549;27;20023;-67
2023/08/11 02:11:43;;;;;;;3.65;3.17;;;;;;;16.51;100.00;95960.13;5101651;27;20035;-67
2023/08/11 02:14:08;;;;;;;3.60;3.40;;;;;;;16.47;100.00;95941.06;5098994;27;20023;-66
2023/08/11 02:16:35;;;;;;;3.25;3.05;;;;;;;16.49;100.00;95912.47;5122423;27;20803;-66
2023/08/11 02:19:01;;;;;;;3.40;3.20;;;;;;;16.50;100.00;95902.66;5120374;27;20023;-67
2023/08/11 02:21:28;;;;;;;4.63;3.15;;;;;;;16.50;100.00;95878.75;5121915;27;20019;-67
2023/08/11 02:23:53;;;;;;;3.42;2.95;;;;;;;16.49;100.00;95854.03;5123270;27;20406;-67
2023/08/11 02:26:19;;;;;;;3.40;3.20;;;;;;;16.46;100.00;95841.91;5103558;28;20110;-66
2023/08/11 02:28:44;;;;;;;4.22;3.33;;;;;;;16.46;100.00;95819.81;5100895;27;20051;-67
2023/08/11 02:31:10;;;;;;;3.38;3.17;;;;;;;16.41;100.00;95809.72;5114264;27;20050;-67
2023/08/11 02:33:36;;;;;;;3.17;2.97;;;;;;;16.40;100.00;95799.25;5124112;27;20469;-67
2023/08/11 02:36:01;;;;;;;3.50;3.30;;;;;;;16.32;100.00;95778.88;5116781;27;20095;-67
2023/08/11 02:38:27;;;;;;;3.60;3.30;;;;;;;16.27;100.00;95750.22;5120964;27;20052;-66
2023/08/11 02:40:52;;;;;;;5.85;3.20;;;;;;;16.25;100.00;95723.00;5122432;27;20030;-67
2023/08/11 02:43:17;;;;;;;4.20;2.95;;;;;;;16.22;100.00;95717.19;5102526;27;20023;-66
2023/08/11 02:45:43;;;;;;;3.55;3.35;;;;;;;16.23;100.00;95716.19;5115383;27;20130;-67
2023/08/11 02:48:08;;;;;;;5.95;3.47;;;;;;;16.23;100.00;95717.00;5100739;28;20047;-67
2023/08/11 02:50:34;;;;;;;3.70;3.30;;;;;;;16.18;100.00;95727.34;5115796;27;20053;-67
2023/08/11 02:52:59;;;;;;;3.78;3.47;;;;;;;16.15;100.00;95717.91;5122898;27;20052;-67
2023/08/11 02:55:25;;;;;;;3.55;3.10;;;;;;;16.12;100.00;95688.22;5114409;27;20030;-66
2023/08/11 02:57:50;;;;;;;3.65;3.35;;;;;;;16.10;100.00;95682.25;5122384;27;20019;-67
2023/08/11 03:00:17;;;;;;;3.50;3.20;;;;;;;16.10;100.00;95650.41;5104577;27;20031;-67
2023/08/11 03:02:47;;;;;;;3.28;2.97;;;;;;;16.09;100.00;95627.50;5119173;27;20806;-67
2023/08/11 03:05:14;;;;;;;5.72;3.25;;;;;;;16.09;100.00;95603.59;5118057;27;20027;-67
2023/08/11 03:07:41;;;;;;;4.50;3.10;;;;;;;16.04;100.00;95589.03;5118210;27;20731;-66
2023/08/11 03:10:09;;;;;;;4.43;3.40;;;;;;;16.00;100.00;95534.63;5121286;27;20039;-67
2023/08/11 03:12:35;;;;;;;3.33;3.03;;;;;;;15.98;100.00;95510.06;5120404;27;20058;-67
2023/08/11 03:15:04;;;;;;;4.75;3.30;;;;;;;15.99;100.00;95487.03;5103987;27;20023;-67
2023/08/11 03:17:30;;;;;;;5.60;2.80;;;;;;;15.99;100.00;95474.56;5118510;27;20578;-67
2023/08/11 03:19:55;;;;;;;3.13;2.92;;;;;;;16.02;100.00;95438.88;5112929;27;20129;-67
2023/08/11 03:22:20;;;;;;;4.15;3.50;;;;;;;16.02;100.00;95426.41;5120056;27;20543;-67
2023/08/11 03:24:46;;;;;;;3.58;3.28;;;;;;;16.02;100.00;95418.44;5120843;27;20110;-67
2023/08/11 03:27:18;;;;;;;4.10;2.90;;;;;;;15.98;100.00;95417.16;5106682;27;20080;-67
2023/08/11 03:29:44;;;;;;;3.85;3.20;;;;;;;15.96;100.00;95403.25;5117918;27;20027;-67
2023/08/11 03:32:09;;;;;;;4.00;3.08;;;;;;;15.93;100.00;95390.34;5098368;27;20027;-67
2023/08/11 03:34:35;;;;;;;3.15;2.95;;;;;;;15.92;100.00;95386.03;5119881;27;20450;-67
2023/08/11 03:37:00;;;;;;;3.47;3.17;;;;;;;15.88;100.00;95374.13;5119945;27;20430;-67
2023/08/11 03:39:26;;;;;;;3.30;3.03;;;;;;;15.83;100.00;95355.28;5123725;27;20471;-67
2023/08/11 03:41:52;;;;;;;3.35;3.13;;;;;;;15.78;100.00;95341.69;5121576;27;20106;-66
2023/08/11 03:44:17;;;;;;;3.47;3.20;;;;;;;15.77;100.00;95295.78;5094966;27;20058;-67
2023/08/11 03:46:43;;;;;;;5.50;3.35;;;;;;;15.68;100.00;95260.56;5116056;27;20027;-67
2023/08/11 03:49:08;;;;;;;3.38;3.08;;;;;;;15.69;100.00;95251.56;5117053;27;20041;-67
2023/08/11 03:51:34;;;;;;;3.88;3.30;;;;;;;15.69;100.00;95238.31;5102835;27;20034;-66
2023/08/11 03:54:02;;;;;;;3.60;3.30;;;;;;;15.68;100.00;95227.88;5112398;27;20020;-67
2023/08/11 03:56:30;;;;;;;3.15;2.95;;;;;;;15.67;100.00;95213.78;5108917;28;20023;-67
2023/08/11 03:58:56;;;;;;;4.07;3.00;;;;;;;15.59;100.00;95190.03;5116409;27;20013;-67
2023/08/11 04:01:22;;;;;;;3.40;3.10;;;;;;;15.52;100.00;95183.81;5099247;28;20064;-67
2023/08/11 04:03:47;;;;;;;3.22;2.92;;;;;;;15.47;100.00;95187.84;5111683;27;20041;-66
2023/08/11 04:06:13;;;;;;;3.97;3.22;;;;;;;15.49;100.00;95178.88;5117219;27;20111;-67
2023/08/11 04:08:38;;;;;;;5.28;2.90;;;;;;;15.46;100.00;95185.34;5116854;27;20024;-67
2023/08/11 04:11:04;;;;;;;3.72;3.42;;;;;;;15.38;100.00;95172.22;5117799;27;20096;-66
2023/08/11 04:13:29;;;;;;;3.20;3.00;;;;;;;15.36;100.00;95155.66;5123971;27;20118;-67
2023/08/11 04:15:54;;;;;;;3.70;3.40;;;;;;;15.33;100.00;95127.66;5114666;28;20019;-67
2023/08/11 04:18:20;;;;;;;5.38;3.35;;;;;;;15.36;100.00;95107.91;5115543;27;20026;-66
2023/08/11 04:20:48;;;;;;;5.43;3.35;;;;;;;15.35;100.00;95093.81;5099740;28;20042;-67
2023/08/11 04:23:14;;;;;;;3.60;3.30;;;;;;;15.33;100.00;95083.41;5116823;27;20110;-67
2023/08/11 04:25:40;;;;;;;3.60;3.22;;;;;;;15.31;100.00;95076.66;5116326;27;20551;-66
2023/08/11 04:28:05;;;;;;;7.35;3.63;;;;;;;15.30;100.00;95056.44;5114022;28;20062;-67
2023/08/11 04:30:32;;;;;;;7.68;3.90;;;;;;;15.31;100.00;95023.63;5094938;28;20479;-67
2023/08/11 04:32:58;;;;;;;3.58;3.28;;;;;;;15.31;100.00;95011.19;5118128;28;20058;-67
2023/08/11 04:35:24;;;;;;;5.85;3.33;;;;;;;15.36;100.00;95005.28;5115494;28;20027;-67
2023/08/11 04:37:50;;;;;;;4.28;2.85;;;;;;;15.37;100.00;95025.53;5100500;28;20027;-67
2023/08/11 04:40:16;;;;;;;3.88;3.58;;;;;;;15.35;100.00;95039.97;5116471;28;20077;-67
2023/08/11 04:42:43;;;;;;;4.03;3.28;;;;;;;15.32;100.00;95051.78;5114527;28;20259;-66
2023/08/11 04:45:08;;;;;;;3.05;2.85;;;;;;;15.30;100.00;95014.84;5118623;28;20471;-67
2023/08/11 04:47:34;;;;;;;3.40;3.20;;;;;;;15.31;100.00;95034.22;5111833;28;20110;-67
2023/08/11 04:50:00;;;;;;;3.92;3.05;;;;;;;15.32;100.00;95033.22;5119843;27;20032;-67
2023/08/11 04:52:27;;;;;;;4.65;3.20;;;;;;;15.33;100.00;95043.66;5119391;27;20031;-67
2023/08/11 04:54:52;;;;;;;5.35;3.50;;;;;;;15.38;100.00;95043.09;5121397;27;20090;-67
2023/08/11 04:57:17;;;;;;;3.15;2.90;;;;;;;15.39;100.00;95054.50;5103182;27;20736;-67
2023/08/11 04:59:46;;;;;;;4.75;3.15;;;;;;;15.41;100.00;95060.44;5124180;27;20024;-67
2023/08/11 05:02:13;;;;;;;3.47;2.70;;;;;;;15.39;100.00;95068.59;5121167;27;20027;-67
2023/08/11 05:04:38;;;;;;;4.25;2.97;;;;;;;15.41;100.00;95065.75;5120231;27;20031;-67
2023/08/11 05:07:08;;;;;;;3.65;3.30;;;;;;;15.44;100.00;95070.66;5106580;27;20031;-67
2023/08/11 05:09:37;;;;;;;5.55;3.30;;;;;;;15.49;100.00;95067.47;5124161;27;20051;-67
2023/08/11 05:12:04;;;;;;;5.78;3.65;;;;;;;15.52;100.00;95073.22;5121193;27;20037;-67
2023/08/11 05:14:29;;;;;;;4.00;3.30;;;;;;;15.50;100.00;95072.59;5101333;27;20110;-67
2023/08/11 05:16:55;;;;;;;3.88;3.58;;;;;;;15.54;100.00;95070.38;5105563;27;20058;-67
2023/08/11 05:19:20;;;;;;;4.45;3.70;;;;;;;15.55;100.00;95059.56;5118021;27;20019;-67
2023/08/11 05:21:46;;;;;;;13.55;3.88;;;;;;;15.57;100.00;95054.06;5125142;27;20565;-67
2023/08/11 05:24:11;;;;;;;5.70;3.38;;;;;;;15.56;100.00;95039.16;5119818;27;20020;-67
2023/08/11 05:26:38;;;;;;;7.03;3.78;;;;;;;15.56;100.00;95031.19;5103826;27;20030;-67
2023/08/11 05:29:03;;;;;;;3.47;3.15;;;;;;;15.61;100.00;95020.88;5120268;27;20039;-67
2023/08/11 05:31:28;;;;;;;4.85;3.33;;;;;;;15.63;100.00;95016.19;5119028;27;20048;-67
2023/08/11 05:33:55;;;;;;;3.92;3.60;;;;;;;15.67;100.00;95020.09;5124047;27;20071;-67
2023/08/11 05:36:20;;;;;;;5.40;3.75;;;;;;;15.70;100.00;95025.03;5118346;27;20133;-67
2023/08/11 05:38:46;;;;;;;4.55;3.63;;;;;;;15.69;100.00;95028.69;5114452;27;20111;-67
2023/08/11 05:41:12;;;;;;;8.25;3.58;;;;;;;15.70;100.00;95043.59;5121648;27;20019;-67
2023/08/11 05:43:37;;;;;;;5.82;3.50;;;;;;;15.72;100.00;95076.06;5118965;27;20057;-67
2023/08/11 05:46:06;;;;;;;6.70;3.63;;;;;;;15.66;100.00;95099.88;5120044;27;20024;-67
2023/08/11 05:48:38;;;;;;;7.18;3.38;;;;;;;15.67;100.00;95109.47;5117796;27;20027;-67
2023/08/11 05:51:04;;;;;;;4.75;3.10;;;;;;;15.71;100.00;95103.63;5119243;27;20020;-67
2023/08/11 05:53:30;;;;;;;3.33;3.03;;;;;;;15.83;100.00;95113.75;5120598;27;20030;-67
2023/08/11 05:55:56;;;;;;;5.13;3.38;;;;;;;15.98;100.00;95106.56;5118327;27;20066;-67
2023/08/11 05:58:21;;;;;;;4.45;3.28;;;;;;;16.14;100.00;95102.84;5116121;27;20056;-67
2023/08/11 06:00:48;;;;;;;5.43;4.00;;;;;;;16.28;100.00;95116.22;5097905;28;20020;-67
2023/08/11 06:03:14;;;;;;;6.45;3.67;;;;;;;16.38;100.00;95137.13;5116303;27;20034;-67
2023/08/11 06:05:39;;;;;;;6.32;3.40;;;;;;;16.47;100.00;95167.88;5118752;27;20019;-67
2023/08/11 06:08:05;;;;;;;5.55;3.47;;;;;;;16.58;100.00;95196.56;5112401;28;20112;-67
2023/08/11 06:10:31;;;;;;;3.72;3.15;;;;;;;16.69;100.00;95218.31;5125681;27;20022;-67
2023/08/11 06:12:57;;;;;;;6.05;3.88;;;;;;;16.83;100.00;95253.81;5099529;28;20031;-67
2023/08/11 06:15:23;;;;;;;6.68;4.03;;;;;;;16.95;100.00;95294.00;5122170;27;20027;-67
2023/08/11 06:17:50;;;;;;;6.63;3.92;;;;;;;17.09;100.00;95334.84;5120487;27;20495;-67
2023/08/11 06:20:18;;;;;;;4.40;3.53;;;;;;;17.22;100.00;95374.03;5121656;27;20142;-67
2023/08/11 06:22:45;;;;;;;3.60;3.30;;;;;;;17.35;100.00;95402.59;5121980;27;20019;-67
2023/08/11 06:25:11;;;;;;;3.33;3.08;;;;;;;17.52;100.00;95427.06;5119490;27;20016;-67
2023/08/11 06:27:36;;;;;;;3.55;3.20;;;;;;;17.69;100.00;95460.41;5119382;27;20055;-67
2023/08/11 06:30:04;;;;;;;6.50;3.67;;;;;;;17.88;100.00;95477.53;5115066;27;20036;-67
2023/08/11 06:32:29;;;;;;;4.35;3.63;;;;;;;17.97;100.00;95496.84;5120379;27;20044;-67
2023/08/11 06:34:55;;;;;;;4.93;3.22;;;;;;;18.02;100.00;95522.97;5116012;27;20142;-67
2023/08/11 06:37:21;;;;;;;4.20;3.53;;;;;;;18.11;100.00;95545.75;5114947;27;20031;-67
2023/08/11 06:39:46;;;;;;;8.18;3.58;;;;;;;18.22;100.00;95565.72;5117520;27;20114;-67
2023/08/11 06:42:12;;;;;;;4.65;3.17;;;;;;;18.29;100.00;95571.94;5100525;27;20240;-67
2023/08/11 06:44:37;;;;;;;4.78;2.92;;;;;;;18.41;100.00;95587.38;5113203;27;20028;-67
2023/08/11 06:47:03;;;;;;;3.72;2.80;;;;;;;18.52;100.00;95596.69;5119909;27;20024;-67
2023/08/11 06:49:28;;;;;;;7.00;3.70;;;;;;;18.58;100.00;95607.41;5103754;27;20056;-67
2023/08/11 06:51:53;;;;;;;3.63;3.20;;;;;;;18.73;100.00;95619.81;5100549;28;20065;-67
2023/08/11 06:54:19;;;;;;;3.17;2.88;;;;;;;18.94;100.00;95628.78;5097166;28;20023;-67
2023/08/11 06:56:44;;;;;;;7.65;3.17;;;;;;;19.13;100.00;95637.94;5119053;27;20038;-67
2023/08/11 06:59:09;;;;;;;3.08;2.78;;;;;;;19.37;100.00;95641.97;5099831;28;20016;-67
2023/08/11 07:01:35;;;;;;;4.43;3.08;;;;;;;19.63;100.00;95648.41;5102243;27;20024;-64
2023/08/11 07:04:00;;;;;;;3.42;2.90;;;;;;;19.90;100.00;95656.50;5117075;27;20513;-64
2023/08/11 07:06:26;;;;;;;3.28;2.80;;;;;;;20.12;100.00;95648.38;5113835;27;20023;-64
2023/08/11 07:08:51;;;;;;;3.15;2.90;;;;;;;20.34;100.00;95657.03;5096525;28;20022;-64
2023/08/11 07:11:17;;;;;;;3.88;2.70;;;;;;;20.52;100.00;95664.44;5121194;27;20156;-64
2023/08/11 07:13:42;;;;;;;4.28;3.00;;;;;;;20.85;100.00;95717.13;5116750;27;20023;-64
2023/08/11 07:16:08;;;;;;;4.30;2.60;;;;;;;21.18;100.00;95721.66;5115404;27;20036;-64
2023/08/11 07:18:33;;;;;;;3.10;2.90;;;;;;;21.70;100.00;95745.03;5121319;27;20104;-64
2023/08/11 07:20:58;;;;;;;3.08;2.88;;;;;;;21.86;100.00;95775.09;5121281;27;20216;-65
2023/08/11 07:23:24;;;;;;;4.88;2.72;;;;;;;22.26;100.00;95777.59;5118450;27;20029;-65
2023/08/11 07:25:49;;;;;;;3.17;2.63;;;;;;;22.84;100.00;95786.56;5096078;27;20596;-64
2023/08/11 07:28:15;;;;;;;3.20;2.83;;;;;;;23.33;100.00;95831.69;5100117;27;20080;-64
2023/08/11 07:30:41;;;;;;;3.92;2.85;;;;;;;23.58;100.00;95837.03;5116973;27;20406;-64
2023/08/11 07:33:07;;;;;;;3.33;3.03;;;;;;;23.78;100.00;95875.53;5104210;27;20028;-65
2023/08/11 07:35:32;;;;;;;5.75;3.28;;;;;;;24.01;100.00;95888.31;5098261;27;20028;-64
2023/08/11 07:37:58;;;;;;;3.72;2.85;;;;;;;24.19;100.00;95935.94;5122667;27;20023;-64
2023/08/11 07:40:23;;;;;;;2.70;2.50;;;;;;;24.39;100.00;95945.66;5119978;27;20024;-64
2023/08/11 07:42:48;;;;;;;3.28;2.42;;;;;;;24.39;100.00;95961.81;5119930;27;20072;-64
2023/08/11 07:45:14;;;;;;;3.25;2.45;;;;;;;24.71;100.00;95967.06;5117386;27;20016;-64
2023/08/11 07:47:39;;;;;;;7.60;2.92;;;;;;;24.75;100.00;95982.53;5102654;27;20028;-65
2023/08/11 07:50:06;;;;;;;3.10;2.85;;;;;;;24.87;100.00;95995.28;5116725;27;20094;-64
2023/08/11 07:52:32;;;;;;;4.15;2.65;;;;;;;24.98;100.00;96023.31;5120056;27;20030;-64
2023/08/11 07:54:58;;;;;;;2.60;2.40;;;;;;;25.22;100.00;96042.28;5117447;27;20024;-65
2023/08/11 07:57:23;;;;;;;3.60;2.60;;;;;;;25.45;100.00;96063.94;5118955;27;20023;-64
2023/08/11 07:59:48;;;;;;;2.90;2.70;;;;;;;25.53;100.00;96095.19;5103233;27;20036;-65
2023/08/11 08:02:15;;;;;;;3.42;2.75;;;;;;;25.65;100.00;96121.38;5101285;28;20032;-64
2023/08/11 08:04:41;;;;;;;4.32;2.67;;;;;;;26.07;100.00;96147.56;5120383;27;20020;-65
2023/08/11 08:07:06;;;;;;;4.22;2.92;;;;;;;26.17;100.00;96153.25;5107050;27;20029;-65
2023/08/11 08:09:33;;;;;;;4.38;2.63;;;;;;;26.28;100.00;96174.06;5116604;27;20031;-64
2023/08/11 08:12:00;;;;;;;5.95;2.63;;;;;;;26.49;100.00;96182.69;5104173;28;20080;-65
2023/08/11 08:14:25;;;;;;;5.97;2.33;;;;;;;26.52;100.00;96187.59;5119372;27;20437;-64
2023/08/11 08:16:51;;;;;;;2.28;2.17;;;;;;;26.46;100.00;96194.75;5116321;27;20065;-64
2023/08/11 08:19:18;;;;;;;4.32;2.45;;;;;;;26.38;100.00;96197.78;5097792;28;20460;-65
2023/08/11 08:21:46;;;;;;;3.28;2.40;;;;;;;26.27;100.00;96196.69;5117629;28;20444;-64
2023/08/11 08:24:16;;;;;;;3.08;2.25;;;;;;;26.92;100.00;96205.06;5103368;28;20019;-65
2023/08/11 08:26:43;;;;;;;2.78;2.58;;;;;;;27.29;100.00;96225.63;5123411;27;20099;-65
2023/08/11 08:29:09;;;;;;;4.03;2.53;;;;;;;27.23;100.00;96261.69;5085570;28;20040;-64
2023/08/11 08:31:35;;;;;;;3.05;2.50;;;;;;;27.30;100.00;96251.59;5100277;28;20017;-65
2023/08/11 08:34:00;;;;;;;2.50;2.30;;;;;;;27.58;100.00;96272.53;5116950;28;20609;-65
2023/08/11 08:36:26;;;;;;;4.18;2.50;;;;;;;27.55;100.00;96299.25;5112802;28;20530;-64
2023/08/11 08:38:51;;;;;;;2.75;2.55;;;;;;;27.62;100.00;96297.22;5110699;28;20024;-64
2023/08/11 08:41:23;;;;;;;5.63;2.40;;;;;;;27.71;100.00;96328.25;5103270;28;20022;-64
2023/08/11 08:43:51;;;;;;;2.60;2.40;;;;;;;27.89;100.00;96337.31;5118844;28;20391;-65
2023/08/11 08:46:20;;;;;;;3.22;2.78;;;;;;;28.35;100.00;96345.59;5115401;28;20028;-65
2023/08/11 08:49:14;;;;;;;2.83;2.53;;;;;;;28.07;100.00;96351.75;5116538;28;20153;-65
2023/08/11 08:51:40;;;;;;;2.60;2.40;;;;;;;28.12;100.00;96343.72;5097719;28;20439;-65
2023/08/11 08:54:09;;;;;;;5.60;2.50;;;;;;;28.38;100.00;96357.81;5118035;28;20038;-65
2023/08/11 08:56:37;;;;;;;5.38;2.42;;;;;;;28.62;100.00;96376.72;5117270;28;20148;-65
2023/08/11 08:59:02;;;;;;;3.30;2.47;;;;;;;28.99;100.00;96404.28;5119578;28;20012;-65
2023/08/11 09:01:29;;;;;;;3.20;2.30;;;;;;;29.19;100.00;96423.88;5119235;28;20082;-64
2023/08/11 09:03:56;;;;;;;5.97;2.47;;;;;;;28.77;100.00;96424.97;5117709;28;20031;-65
2023/08/11 09:06:22;;;;;;;2.40;2.17;;;;;;;29.05;100.00;96434.19;5113818;28;20076;-65
2023/08/11 09:08:47;;;;;;;3.25;2.22;;;;;;;28.92;100.00;96430.69;5102650;28;20524;-65
2023/08/11 09:11:13;;;;;;;3.92;2.90;;;;;;;29.14;100.00;96422.72;5113585;28;20072;-65
2023/08/11 09:13:38;;;;;;;2.33;2.13;;;;;;;29.10;100.00;96426.97;5102527;28;20030;-65
2023/08/11 09:16:03;;;;;;;3.78;2.40;;;;;;;29.17;100.00;96424.94;5118053;28;20026;-65
2023/08/11 09:18:29;;;;;;;3.47;2.30;;;;;;;29.35;100.00;96438.50;5114736;28;20077;-65
2023/08/11 09:20:55;;;;;;;2.58;2.38;;;;;;;29.42;100.00;96453.59;5115023;28;20457;-65
2023/08/11 09:23:20;;;;;;;2.95;2.17;;;;;;;29.29;100.00;96465.53;5120436;28;20632;-65
2023/08/11 09:25:46;;;;;;;4.13;2.45;;;;;;;29.14;100.00;96471.50;5116003;28;20027;-64
2023/08/11 09:28:12;;;;;;;3.15;2.30;;;;;;;29.25;100.00;96479.81;5119235;28;20097;-65
2023/08/11 09:30:38;;;;;;;3.45;2.40;;;;;;;28.94;100.00;96484.66;5119896;28;20480;-65
2023/08/11 09:33:07;;;;;;;2.45;2.25;;;;;;;28.88;100.00;96498.13;5118720;28;20058;-65
2023/08/11 09:35:33;;;;;;;3.00;2.60;;;;;;;28.73;100.00;96497.75;5097156;27;20407;-65
2023/08/11 09:38:00;;;;;;;3.90;2.20;;;;;;;28.56;100.00;96501.19;5100905;28;20467;-65
2023/08/11 09:40:26;;;;;;;4.20;2.42;;;;;;;28.48;100.00;96498.00;5120711;27;20038;-65
2023/08/11 09:42:56;;;;;;;2.22;2.03;;;;;;;28.46;100.00;96495.56;5099539;28;20019;-65
2023/08/11 09:45:22;;;;;;;2.50;2.30;;;;;;;28.92;100.00;96490.31;5126072;27;20701;-65
2023/08/11 09:47:48;;;;;;;2.88;2.30;;;;;;;29.48;100.00;96483.50;5118682;27;20110;-65
2023/08/11 09:50:14;;;;;;;2.70;1.98;;;;;;;29.57;100.00;96484.78;5122709;27;20062;-65
2023/08/11 09:52:42;;;;;;;2.53;2.33;;;;;;;29.77;100.00;96481.56;5123926;27;20062;-65
2023/08/11 09:55:09;;;;;;;3.42;1.98;;;;;;;30.24;100.00;96485.88;5119825;27;20118;-65
2023/08/11 09:57:36;;;;;;;4.40;2.25;;;;;;;30.63;100.00;96478.84;5122971;27;20505;-65
2023/08/11 10:00:04;;;;;;;2.92;2.50;;;;;;;30.57;100.00;96477.91;5118004;27;20042;-65
2023/08/11 10:02:31;;;;;;;2.42;2.22;;;;;;;30.39;100.00;96468.16;5120440;27;20031;-65
2023/08/11 10:05:03;;;;;;;3.45;2.20;;;;;;;30.09;100.00;96466.63;5115885;27;20468;-65
2023/08/11 10:07:37;;;;;;;2.40;2.20;;;;;;;30.06;100.00;96467.94;5126628;27;20046;-65
2023/08/11 10:10:14;;;;;;;2.58;2.17;;;;;;;30.07;100.00;96464.19;5122295;27;20023;-65
2023/08/11 10:12:45;;;;;;;4.95;2.22;;;;;;;30.20;100.00;96463.03;5113012;27;20153;-65
2023/08/11 10:15:12;;;;;;;3.55;2.53;;;;;;;30.21;100.00;96463.81;5120937;27;20023;-65
2023/08/11 10:17:38;;;;;;;2.80;1.80;;;;;;;30.10;100.00;96469.13;5113274;27;20123;-65
2023/08/11 10:20:07;;;;;;;2.60;2.40;;;;;;;30.36;100.00;96463.22;5100204;27;20031;-64
2023/08/11 10:22:33;;;;;;;5.97;2.00;;;;;;;30.41;100.00;96468.75;5102807;27;20036;-64
2023/08/11 10:25:01;;;;;;;2.53;2.28;;;;;;;30.24;100.00;96464.16;5103222;28;20063;-65
2023/08/11 10:27:28;;;;;;;2.85;2.03;;;;;;;29.99;100.00;96469.97;5102752;27;20034;-65
2023/08/11 10:29:55;;;;;;;2.00;1.90;;;;;;;30.18;100.00;96458.91;5093724;28;20018;-64
2023/08/11 10:32:23;;;;;;;7.07;2.13;;;;;;;30.50;100.00;96459.06;5103859;27;20700;-64
2023/08/11 10:34:50;;;;;;;3.53;2.25;;;;;;;30.47;100.00;96447.88;5103593;27;20016;-65
2023/08/11 10:37:15;;;;;;;2.58;1.92;;;;;;;30.48;100.00;96461.22;5105909;27;20020;-64
2023/08/11 10:39:40;;;;;;;2.03;1.92;;;;;;;31.09;100.00;96454.94;5104930;28;20031;-65
2023/08/11 10:42:12;;;;;;;1.98;1.80;;;;;;;31.43;100.00;96448.50;5104441;27;20179;-64
2023/08/11 10:44:43;;;;;;;2.00;1.90;;;;;;;31.54;100.00;96449.41;5102710;27;20039;-64
2023/08/11 10:47:08;;;;;;;2.17;2.08;;;;;;;31.14;100.00;96446.81;5101358;27;20377;-65
2023/08/11 10:49:35;;;;;;;4.00;1.70;;;;;;;31.23;100.00;96441.78;5104051;28;20110;-65
2023/08/11 10:52:02;;;;;;;2.00;1.90;;;;;;;31.06;100.00;96436.41;5102987;27;20020;-64
2023/08/11 10:54:27;;;;;;;2.20;2.00;;;;;;;31.08;100.00;96438.84;5103896;27;20033;-64
2023/08/11 10:56:53;;;;;;;1.92;1.83;;;;;;;31.23;100.00;96430.91;5107115;28;20108;-65
2023/08/11 10:59:28;;;;;;;2.35;2.15;;;;;;;31.02;100.00;96425.22;5105573;27;20073;-65
2023/08/11 11:01:55;;;;;;;2.08;1.98;;;;;;;31.19;100.00;96421.59;5099059;27;20024;-65
2023/08/11 11:04:22;;;;;;;2.03;1.92;;;;;;;31.57;100.00;96421.69;5106301;27;20039;-65
2023/08/11 11:06:51;;;;;;;3.00;1.83;;;;;;;31.55;100.00;96421.13;5108552;27;20424;-65
2023/08/11 11:09:17;;;;;;;2.15;2.05;;;;;;;31.65;100.00;96412.22;5102154;27;20027;-65
2023/08/11 11:11:44;;;;;;;3.58;1.90;;;;;;;31.81;100.00;96413.19;5105627;27;20360;-65
2023/08/11 11:14:10;;;;;;;2.05;1.95;;;;;;;32.10;100.00;96404.66;5105821;27;20503;-65
2023/08/11 11:16:36;;;;;;;1.95;1.85;;;;;;;32.23;100.00;96398.75;5106532;27;20031;-65
2023/08/11 11:19:04;;;;;;;2.00;1.63;;;;;;;32.66;100.00;96392.44;5106425;27;20472;-65
2023/08/11 11:21:30;;;;;;;2.25;2.00;;;;;;;33.04;100.00;96384.91;5105635;27;20451;-65